Time;durP1;ratioP1;P1;durP2;ratioP2;P2;SDS_P1;SDS_P2;PMS_P1;PMS_P2;Temp;Humidity;BMP_temperature;BMP_pressure;BME280_temperature;BME280_humidity;BME280_pressure;Samples;Min_cycle;Max_cycle;Signal;HPM_P1;HPM_P2
2021/05/07 00:03:31;;;;;;;1.75;0.65;;;17.60;59.00;;;;;;10557787;28;20027;-58
2021/05/07 00:08:35;;;;;;;1.10;0.70;;;17.60;58.90;;;;;;10556087;28;20020;-57
2021/05/07 00:13:37;;;;;;;1.67;0.90;;;17.60;58.90;;;;;;10571171;28;20096;-57
2021/05/07 00:18:38;;;;;;;1.05;0.57;;;17.60;58.80;;;;;;10545717;28;20377;-56
2021/05/07 00:23:39;;;;;;;1.63;0.73;;;17.60;58.80;;;;;;10543037;28;20028;-56
2021/05/07 00:28:39;;;;;;;1.50;0.60;;;17.60;58.80;;;;;;10542475;28;20032;-57
2021/05/07 00:33:40;;;;;;;0.98;0.60;;;17.60;58.70;;;;;;10557249;28;20388;-57
2021/05/07 00:38:41;;;;;;;0.93;0.60;;;17.60;58.70;;;;;;10541738;28;20048;-57
2021/05/07 00:43:42;;;;;;;1.15;0.50;;;17.60;58.70;;;;;;10541710;28;20028;-57
2021/05/07 00:48:44;;;;;;;1.20;0.70;;;17.60;58.70;;;;;;10560927;28;20071;-57
2021/05/07 00:53:45;;;;;;;1.77;0.52;;;17.60;58.70;;;;;;10541702;28;20036;-57
2021/05/07 00:58:46;;;;;;;1.27;0.57;;;17.60;58.60;;;;;;10541554;28;20032;-58
2021/05/07 01:03:47;;;;;;;1.30;0.60;;;17.60;58.60;;;;;;10546389;28;20460;-57
2021/05/07 01:08:47;;;;;;;1.52;0.77;;;17.60;58.60;;;;;;10535434;28;20098;-58
2021/05/07 01:13:48;;;;;;;0.82;0.60;;;17.60;58.50;;;;;;10538148;28;20058;-58
2021/05/07 01:18:49;;;;;;;0.90;0.50;;;17.60;58.50;;;;;;10540345;28;20107;-58
2021/05/07 01:23:49;;;;;;;0.90;0.60;;;17.70;58.50;;;;;;10540560;28;20058;-58
2021/05/07 01:28:50;;;;;;;1.17;0.50;;;17.60;58.30;;;;;;10522507;28;20143;-58
2021/05/07 01:33:51;;;;;;;3.45;0.93;;;17.60;58.40;;;;;;10576293;28;20111;-58
2021/05/07 01:38:51;;;;;;;1.33;0.50;;;17.60;58.40;;;;;;10549362;28;20044;-58
2021/05/07 01:43:52;;;;;;;1.50;0.65;;;17.60;58.30;;;;;;10540094;28;20031;-58
2021/05/07 01:48:53;;;;;;;1.23;0.77;;;17.60;58.30;;;;;;10539590;28;20024;-58
2021/05/07 01:53:54;;;;;;;1.88;0.70;;;17.60;58.20;;;;;;10568361;28;20115;-57
2021/05/07 01:58:54;;;;;;;0.90;0.63;;;17.60;58.20;;;;;;10553597;28;20040;-58
2021/05/07 02:03:55;;;;;;;1.00;0.50;;;17.60;58.10;;;;;;10563741;28;20024;-58
2021/05/07 02:08:56;;;;;;;1.02;0.60;;;17.60;58.10;;;;;;10551249;28;20055;-57
2021/05/07 02:13:56;;;;;;;1.02;0.70;;;17.60;58.70;;;;;;10553374;28;20483;-58
2021/05/07 02:18:57;;;;;;;1.08;0.60;;;17.60;58.10;;;;;;10520556;28;20028;-57
2021/05/07 02:23:59;;;;;;;1.30;0.50;;;17.60;58.00;;;;;;10552364;28;20119;-58
2021/05/07 02:28:59;;;;;;;1.67;0.32;;;17.60;58.00;;;;;;10538757;28;20097;-57
2021/05/07 02:34:01;;;;;;;1.58;0.70;;;17.60;58.00;;;;;;10539308;28;20124;-57
2021/05/07 02:39:02;;;;;;;1.02;0.55;;;17.60;57.90;;;;;;10546240;28;20048;-57
2021/05/07 02:44:05;;;;;;;0.90;0.50;;;17.70;57.90;;;;;;10538699;28;20031;-58
2021/05/07 02:49:06;;;;;;;0.77;0.50;;;17.60;57.90;;;;;;10538041;28;20078;-57
2021/05/07 02:54:07;;;;;;;1.48;0.70;;;17.60;57.90;;;;;;10538665;28;20039;-58
2021/05/07 02:59:13;;;;;;;1.30;0.63;;;17.60;57.90;;;;;;10540543;28;20503;-57
2021/05/07 03:04:14;;;;;;;0.65;0.60;;;17.60;57.80;;;;;;10564043;28;20019;-57
2021/05/07 03:09:16;;;;;;;2.22;1.00;;;17.70;57.80;;;;;;10559177;28;20442;-56
2021/05/07 03:14:17;;;;;;;2.08;0.70;;;17.70;57.70;;;;;;10557339;28;20040;-57
2021/05/07 03:19:18;;;;;;;0.40;0.40;;;17.70;57.80;;;;;;10545195;28;20467;-58
2021/05/07 03:24:19;;;;;;;0.95;0.65;;;17.60;57.70;;;;;;10545487;28;20028;-56
2021/05/07 03:29:20;;;;;;;0.60;0.52;;;17.70;57.70;;;;;;10545131;28;20099;-58
2021/05/07 03:34:20;;;;;;;0.70;0.47;;;17.60;57.70;;;;;;10545104;28;20036;-57
2021/05/07 03:39:21;;;;;;;0.80;0.63;;;17.60;57.70;;;;;;10526268;28;20040;-57
2021/05/07 03:44:22;;;;;;;0.80;0.55;;;17.60;57.70;;;;;;10560530;28;20462;-58
2021/05/07 03:49:22;;;;;;;1.15;0.40;;;17.70;57.70;;;;;;10559463;28;20480;-57
2021/05/07 03:54:23;;;;;;;0.60;0.50;;;17.60;57.70;;;;;;10544322;28;20146;-57
2021/05/07 03:59:24;;;;;;;0.70;0.47;;;17.60;57.70;;;;;;10525677;28;20380;-57
2021/05/07 04:04:24;;;;;;;1.45;0.75;;;17.60;57.60;;;;;;10569962;28;20036;-57
2021/05/07 04:09:41;;;;;;;0.85;0.65;;;17.60;57.60;;;;;;10536656;28;20107;-57
2021/05/07 04:14:42;;;;;;;0.50;0.40;;;17.60;57.60;;;;;;10526929;28;20082;-57
2021/05/07 04:19:43;;;;;;;1.92;0.45;;;17.60;57.60;;;;;;10542801;28;20036;-58
2021/05/07 04:24:43;;;;;;;0.52;0.43;;;17.60;57.50;;;;;;10555264;28;20518;-57
2021/05/07 04:29:44;;;;;;;0.77;0.45;;;17.70;57.60;;;;;;10540498;28;20024;-57
2021/05/07 04:34:45;;;;;;;1.55;0.52;;;17.60;57.60;;;;;;10539016;28;20051;-56
2021/05/07 04:39:46;;;;;;;0.98;0.40;;;17.60;57.60;;;;;;10538468;28;20107;-56
2021/05/07 04:44:46;;;;;;;1.23;0.40;;;17.60;57.50;;;;;;10555965;28;20056;-55
2021/05/07 04:49:47;;;;;;;0.60;0.40;;;17.60;57.50;;;;;;10562783;28;20449;-57
2021/05/07 04:54:48;;;;;;;1.15;0.40;;;17.70;57.50;;;;;;10564882;28;20364;-57
2021/05/07 04:59:48;;;;;;;0.77;0.45;;;17.70;57.50;;;;;;10576844;28;20096;-58
2021/05/07 05:04:49;;;;;;;0.52;0.40;;;17.60;57.50;;;;;;10564650;28;20115;-57
2021/05/07 05:09:50;;;;;;;3.00;1.10;;;17.60;57.50;;;;;;10567531;28;20368;-57
2021/05/07 05:14:50;;;;;;;2.55;0.55;;;17.60;58.00;;;;;;10564723;28;20114;-58
2021/05/07 05:19:51;;;;;;;2.55;0.63;;;17.60;58.80;;;;;;10549198;28;20118;-58
2021/05/07 05:24:52;;;;;;;2.13;0.50;;;17.60;58.70;;;;;;10566970;28;20087;-59
2021/05/07 05:29:52;;;;;;;5.40;1.17;;;17.60;58.80;;;;;;10565999;28;20027;-57
2021/05/07 05:34:53;;;;;;;9.73;1.00;;;17.60;59.40;;;;;;10540972;28;20079;-56
2021/05/07 05:39:54;;;;;;;13.05;1.38;;;17.60;60.00;;;;;;10554654;28;20084;-57
2021/05/07 05:44:54;;;;;;;10.52;1.45;;;17.70;59.70;;;;;;10530347;28;20030;-56
2021/05/07 05:49:56;;;;;;;12.43;1.85;;;17.80;60.00;;;;;;10539499;28;20552;-58
2021/05/07 05:54:56;;;;;;;22.50;2.13;;;17.80;59.80;;;;;;10562374;28;20047;-57
2021/05/07 05:59:57;;;;;;;12.80;1.98;;;17.80;59.50;;;;;;10579530;28;20053;-57
2021/05/07 06:04:58;;;;;;;10.52;1.67;;;17.90;59.20;;;;;;10532391;28;20111;-58
2021/05/07 06:09:59;;;;;;;13.57;2.25;;;17.90;59.00;;;;;;10556375;28;20088;-57
2021/05/07 06:15:00;;;;;;;13.65;2.78;;;17.90;59.40;;;;;;10563973;28;20024;-57
2021/05/07 06:20:08;;;;;;;12.82;2.50;;;18.00;59.70;;;;;;10570078;28;20060;-57
2021/05/07 06:25:14;;;;;;;12.63;1.88;;;18.00;60.60;;;;;;10551901;28;20108;-55
2021/05/07 06:30:16;;;;;;;20.10;2.28;;;18.00;60.90;;;;;;10551493;28;20028;-56
2021/05/07 06:35:16;;;;;;;14.95;2.83;;;18.00;61.40;;;;;;10558270;28;20411;-56
2021/05/07 06:40:17;;;;;;;17.33;2.38;;;18.00;61.00;;;;;;10581886;28;20031;-58
2021/05/07 06:45:18;;;;;;;14.38;1.73;;;18.00;61.40;;;;;;10582657;28;20050;-57
2021/05/07 06:50:20;;;;;;;12.70;2.30;;;18.00;61.30;;;;;;10585357;28;20114;-58
2021/05/07 06:55:21;;;;;;;14.60;1.65;;;18.00;60.80;;;;;;10588063;28;20024;-60
2021/05/07 07:00:22;;;;;;;8.13;2.55;;;18.00;60.60;;;;;;10580877;28;20106;-60
2021/05/07 07:05:23;;;;;;;11.18;1.65;;;18.00;60.50;;;;;;10535606;28;20031;-60
2021/05/07 07:10:23;;;;;;;15.38;2.22;;;18.00;60.60;;;;;;10558660;28;20442;-60
2021/05/07 07:15:24;;;;;;;15.50;2.85;;;18.00;61.10;;;;;;10587246;28;20390;-60
2021/05/07 07:20:25;;;;;;;17.50;2.55;;;18.00;60.80;;;;;;10587160;28;20123;-59
2021/05/07 07:25:27;;;;;;;25.00;3.35;;;18.00;61.10;;;;;;10587274;28;20028;-58
2021/05/07 07:30:27;;;;;;;13.38;2.70;;;18.10;61.80;;;;;;10586930;28;20027;-57
2021/05/07 07:35:28;;;;;;;16.75;1.98;;;18.10;60.90;;;;;;10586633;28;20043;-59
2021/05/07 07:40:29;;;;;;;14.60;2.65;;;18.00;60.40;;;;;;10586378;28;20073;-59
2021/05/07 07:45:30;;;;;;;9.43;1.67;;;18.00;60.00;;;;;;10574249;28;20508;-59
2021/05/07 07:50:30;;;;;;;9.95;2.08;;;18.00;59.60;;;;;;10568493;28;20118;-58
2021/05/07 07:55:31;;;;;;;6.13;1.63;;;18.00;59.60;;;;;;10579794;28;20020;-58
2021/05/07 08:00:33;;;;;;;9.02;2.20;;;18.00;59.60;;;;;;10580448;28;20023;-59
2021/05/07 08:05:33;;;;;;;11.63;2.05;;;18.00;59.70;;;;;;10559811;28;20499;-58
2021/05/07 08:10:34;;;;;;;9.20;1.98;;;18.00;59.70;;;;;;10581366;28;20038;-56
2021/05/07 08:15:35;;;;;;;11.90;1.75;;;17.90;59.80;;;;;;10543739;28;20035;-57
2021/05/07 08:20:37;;;;;;;6.72;1.15;;;17.90;59.70;;;;;;10542608;28;20372;-57
2021/05/07 08:25:37;;;;;;;9.48;2.15;;;17.90;59.60;;;;;;10542424;28;20157;-58
2021/05/07 08:30:38;;;;;;;8.75;1.92;;;18.00;59.70;;;;;;10541835;28;20107;-58
2021/05/07 08:35:39;;;;;;;8.85;1.17;;;17.90;59.60;;;;;;10541647;28;20056;-58
2021/05/07 08:40:40;;;;;;;2.90;1.17;;;17.90;59.70;;;;;;10558653;28;20042;-58
2021/05/07 08:45:41;;;;;;;5.38;1.23;;;17.90;59.60;;;;;;10583686;28;20098;-58
2021/05/07 08:50:49;;;;;;;4.38;1.27;;;17.90;59.50;;;;;;10565351;28;20038;-59
2021/05/07 08:55:50;;;;;;;5.07;1.00;;;17.90;59.50;;;;;;10582019;28;20059;-59
2021/05/07 09:00:51;;;;;;;4.55;1.38;;;17.90;59.40;;;;;;10586109;27;20030;-58
2021/05/07 09:05:52;;;;;;;5.05;1.45;;;17.90;59.40;;;;;;10562098;28;20088;-57
2021/05/07 09:11:01;;;;;;;13.02;2.00;;;17.90;59.30;;;;;;10579072;28;20115;-58
2021/05/07 09:16:08;;;;;;;12.30;1.63;;;17.90;59.10;;;;;;10540356;28;20035;-58
2021/05/07 09:21:10;;;;;;;5.82;1.13;;;17.90;60.20;;;;;;10540248;28;20151;-58
2021/05/07 09:26:11;;;;;;;3.83;1.20;;;17.90;61.20;;;;;;10522029;28;20035;-58
2021/05/07 09:31:15;;;;;;;13.10;2.17;;;18.00;61.70;;;;;;10539927;28;20020;-59
2021/05/07 09:36:30;;;;;;;6.82;1.58;;;18.00;61.60;;;;;;10521171;28;20051;-59
2021/05/07 09:41:45;;;;;;;13.63;2.67;;;18.00;62.50;;;;;;10539103;28;20036;-59
2021/05/07 09:46:47;;;;;;;7.75;1.23;;;17.90;62.30;;;;;;10545377;28;20032;-59
2021/05/07 09:51:49;;;;;;;17.38;1.60;;;17.90;62.60;;;;;;10539154;28;20099;-59
2021/05/07 09:56:50;;;;;;;10.70;1.33;;;18.00;62.70;;;;;;10538926;28;20024;-60
2021/05/07 10:01:50;;;;;;;15.57;2.05;;;18.00;62.70;;;;;;10528798;28;20046;-61
2021/05/07 10:06:51;;;;;;;10.38;1.83;;;17.90;62.50;;;;;;10557849;28;20024;-60
2021/05/07 10:11:55;;;;;;;9.77;1.65;;;17.90;63.10;;;;;;10563743;28;20051;-60
2021/05/07 10:16:56;;;;;;;11.20;2.20;;;17.90;62.70;;;;;;10540239;28;20488;-60
2021/05/07 10:22:06;;;;;;;18.90;2.85;;;17.90;62.70;;;;;;10533536;28;20067;-58
2021/05/07 10:27:21;;;;;;;19.13;3.03;;;17.90;62.60;;;;;;10581042;28;20532;-57
2021/05/07 10:32:37;;;;;;;24.17;2.85;;;17.80;62.70;;;;;;10532007;28;20111;-57
2021/05/07 10:37:45;;;;;;;8.95;1.38;;;17.80;62.30;;;;;;10537761;28;20089;-58
2021/05/07 10:42:57;;;;;;;18.38;2.28;;;17.80;63.80;;;;;;10538188;28;20070;-57
2021/05/07 10:47:57;;;;;;;11.93;1.90;;;17.90;62.70;;;;;;10537862;28;20036;-57
2021/05/07 10:52:58;;;;;;;13.07;2.30;;;17.90;64.50;;;;;;10519345;28;20066;-57
2021/05/07 10:58:01;;;;;;;12.57;1.92;;;17.80;63.70;;;;;;10519416;28;20020;-57
2021/05/07 11:03:04;;;;;;;12.00;2.03;;;17.80;64.00;;;;;;10551811;28;20032;-57
2021/05/07 11:08:06;;;;;;;9.15;2.20;;;17.80;64.20;;;;;;10578124;28;20030;-56
2021/05/07 11:13:09;;;;;;;19.95;2.30;;;17.80;64.50;;;;;;10559025;28;20028;-57
2021/05/07 11:18:11;;;;;;;6.78;1.48;;;17.90;64.50;;;;;;10537136;28;20024;-57
2021/05/07 11:23:13;;;;;;;12.57;2.05;;;17.90;64.60;;;;;;10519276;28;20020;-57
2021/05/07 11:28:18;;;;;;;18.08;2.55;;;17.90;64.60;;;;;;10544162;28;20028;-56
2021/05/07 11:33:24;;;;;;;16.60;2.67;;;18.00;65.00;;;;;;10547398;28;20119;-60
2021/05/07 11:38:29;;;;;;;16.27;2.53;;;18.00;64.80;;;;;;10554676;28;20043;-58
2021/05/07 11:43:30;;;;;;;9.88;2.03;;;18.10;64.70;;;;;;10571747;28;20024;-61
2021/05/07 11:48:33;;;;;;;15.05;2.92;;;18.10;64.30;;;;;;10585941;28;20028;-60
2021/05/07 11:53:37;;;;;;;9.80;2.25;;;18.10;63.90;;;;;;10585760;28;20058;-61
2021/05/07 11:58:39;;;;;;;12.25;2.10;;;18.10;63.00;;;;;;10585609;28;20550;-61
2021/05/07 12:03:42;;;;;;;9.13;2.58;;;18.10;63.00;;;;;;10557848;28;20111;-58
2021/05/07 12:08:43;;;;;;;8.57;1.98;;;18.20;62.90;;;;;;10544871;28;20101;-60
2021/05/07 12:13:46;;;;;;;10.35;2.58;;;18.20;62.60;;;;;;10582314;28;20080;-60
2021/05/07 12:18:54;;;;;;;9.90;2.45;;;18.20;62.40;;;;;;10576639;28;20036;-60
2021/05/07 12:23:55;;;;;;;5.32;2.65;;;18.10;62.50;;;;;;10582442;28;20116;-60
2021/05/07 12:29:00;;;;;;;8.32;2.42;;;18.10;62.30;;;;;;10542696;28;20552;-59
2021/05/07 12:34:11;;;;;;;4.78;2.05;;;18.10;62.20;;;;;;10542065;28;20036;-60
2021/05/07 12:39:14;;;;;;;6.75;2.42;;;18.20;62.00;;;;;;10524362;28;20098;-59
2021/05/07 12:44:14;;;;;;;5.72;2.40;;;18.10;62.20;;;;;;10541267;28;20028;-60
2021/05/07 12:49:17;;;;;;;4.32;2.35;;;18.10;62.30;;;;;;10541346;28;20496;-61
2021/05/07 12:54:17;;;;;;;14.45;2.45;;;18.00;61.90;;;;;;10541194;28;20030;-60
2021/05/07 12:59:19;;;;;;;9.15;2.67;;;17.90;61.90;;;;;;10540934;28;20040;-58
2021/05/07 13:04:19;;;;;;;3.50;1.70;;;18.00;61.70;;;;;;10554416;28;20043;-60
2021/05/07 13:09:20;;;;;;;3.25;1.73;;;17.90;61.70;;;;;;10542085;28;20038;-60
2021/05/07 13:14:21;;;;;;;5.05;1.65;;;17.90;61.70;;;;;;10522717;28;20027;-59
2021/05/07 13:19:23;;;;;;;4.10;1.90;;;18.00;61.90;;;;;;10556867;28;20039;-60
2021/05/07 13:24:27;;;;;;;9.20;1.98;;;18.00;62.30;;;;;;10565574;28;20492;-58
2021/05/07 13:29:28;;;;;;;9.43;1.88;;;18.00;63.10;;;;;;10566665;28;20027;-60
2021/05/07 13:34:29;;;;;;;4.72;1.83;;;18.00;63.90;;;;;;10535763;28;20036;-58
2021/05/07 13:39:30;;;;;;;10.85;2.35;;;18.00;62.70;;;;;;10521397;28;20506;-58
2021/05/07 13:44:31;;;;;;;10.93;2.00;;;18.00;64.00;;;;;;10547577;28;20353;-57
2021/05/07 13:49:31;;;;;;;10.73;1.65;;;18.10;63.80;;;;;;10548907;28;20411;-56
2021/05/07 13:54:32;;;;;;;13.02;2.80;;;18.10;63.70;;;;;;10535788;28;20028;-56
2021/05/07 13:59:33;;;;;;;26.98;3.17;;;18.10;63.60;;;;;;10562256;28;20106;-56
2021/05/07 14:04:33;;;;;;;9.77;2.15;;;18.00;63.50;;;;;;10568218;28;20032;-56
2021/05/07 14:09:34;;;;;;;10.23;1.73;;;18.00;64.30;;;;;;10555989;28;20115;-56
2021/05/07 14:14:35;;;;;;;9.73;2.47;;;18.00;64.40;;;;;;10538511;28;20085;-56
2021/05/07 14:19:35;;;;;;;24.30;3.60;;;18.00;64.00;;;;;;10538117;28;20111;-56
2021/05/07 14:24:36;;;;;;;13.15;3.42;;;18.00;63.90;;;;;;10568120;28;20097;-56
2021/05/07 14:29:37;;;;;;;12.60;2.25;;;18.00;64.80;;;;;;10561266;28;20031;-57
2021/05/07 14:34:38;;;;;;;4.18;1.30;;;18.00;64.40;;;;;;10550452;28;20032;-59
2021/05/07 14:39:41;;;;;;;10.98;1.90;;;18.00;64.30;;;;;;10537492;28;20038;-59
2021/05/07 14:44:41;;;;;;;12.75;2.47;;;18.00;64.30;;;;;;10537678;28;20040;-59
2021/05/07 14:49:42;;;;;;;7.60;1.75;;;18.00;64.70;;;;;;10537834;28;20028;-60
2021/05/07 14:54:43;;;;;;;12.88;1.60;;;18.00;64.90;;;;;;10537832;28;20138;-60
2021/05/07 14:59:44;;;;;;;12.18;1.65;;;18.00;65.30;;;;;;10539589;28;20024;-59
2021/05/07 15:04:44;;;;;;;35.38;3.65;;;18.00;65.30;;;;;;10540042;28;20028;-59
2021/05/07 15:09:46;;;;;;;36.60;4.32;;;18.00;65.40;;;;;;10536600;28;20160;-59
2021/05/07 15:14:46;;;;;;;34.63;4.78;;;18.00;65.00;;;;;;10531347;28;20512;-60
2021/05/07 15:19:51;;;;;;;25.42;3.90;;;18.00;64.70;;;;;;10564798;28;20095;-61
2021/05/07 15:24:55;;;;;;;16.75;3.10;;;18.00;64.50;;;;;;10576664;28;20032;-62
2021/05/07 15:30:00;;;;;;;15.82;2.35;;;18.00;64.90;;;;;;10549827;28;20119;-61
2021/05/07 15:35:02;;;;;;;12.40;2.65;;;18.00;64.50;;;;;;10574317;28;20051;-57
2021/05/07 15:40:07;;;;;;;18.77;3.20;;;18.00;65.10;;;;;;10569183;28;20093;-60
2021/05/07 15:45:09;;;;;;;17.23;3.25;;;18.00;64.90;;;;;;10541194;28;20115;-57
2021/05/07 15:50:12;;;;;;;13.73;2.15;;;18.00;65.10;;;;;;10553515;28;20093;-58
2021/05/07 15:55:13;;;;;;;22.30;2.55;;;18.00;65.20;;;;;;10570099;28;20115;-60
2021/05/07 16:00:14;;;;;;;15.35;2.88;;;18.10;65.70;;;;;;10567902;28;20498;-57
2021/05/07 16:05:15;;;;;;;15.20;2.70;;;18.10;65.80;;;;;;10561564;28;20028;-57
2021/05/07 16:10:16;;;;;;;12.73;2.50;;;18.10;65.60;;;;;;10557946;28;20028;-58
2021/05/07 16:15:19;;;;;;;14.77;3.42;;;18.10;65.50;;;;;;10541743;28;20038;-60
2021/05/07 16:20:20;;;;;;;11.65;3.20;;;18.00;64.10;;;;;;10542156;28;20138;-59
2021/05/07 16:25:22;;;;;;;14.60;3.40;;;18.00;63.00;;;;;;10524529;28;20026;-58
2021/05/07 16:30:23;;;;;;;14.93;2.92;;;18.00;62.10;;;;;;10554791;28;20112;-59
2021/05/07 16:35:24;;;;;;;15.82;3.13;;;18.00;60.70;;;;;;10556186;28;20052;-57
2021/05/07 16:40:25;;;;;;;24.17;3.75;;;18.00;59.60;;;;;;10543354;28;20477;-57
2021/05/07 16:45:27;;;;;;;16.52;3.42;;;18.00;61.50;;;;;;10542008;28;20051;-56
2021/05/07 16:50:28;;;;;;;16.58;3.90;;;18.00;62.00;;;;;;10540528;28;20558;-58
2021/05/07 16:55:28;;;;;;;17.23;3.17;;;18.10;62.30;;;;;;10548524;28;20039;-59
2021/05/07 17:00:31;;;;;;;12.18;2.92;;;18.10;62.40;;;;;;10552441;28;20475;-61
2021/05/07 17:05:32;;;;;;;9.45;2.97;;;18.10;62.20;;;;;;10568456;28;20024;-61
2021/05/07 17:10:34;;;;;;;11.25;2.15;;;18.10;62.40;;;;;;10546178;28;20391;-60
2021/05/07 17:15:36;;;;;;;10.27;2.03;;;18.10;62.50;;;;;;10561059;28;20028;-60
2021/05/07 17:20:36;;;;;;;12.60;2.53;;;18.10;62.70;;;;;;10545085;28;20183;-60
2021/05/07 17:25:37;;;;;;;12.63;2.58;;;18.10;62.80;;;;;;10564910;28;20552;-60
2021/05/07 17:30:38;;;;;;;8.85;2.47;;;18.00;62.80;;;;;;10552664;28;20072;-59
2021/05/07 17:35:39;;;;;;;7.45;1.60;;;18.10;62.90;;;;;;10547807;28;20040;-59
2021/05/07 17:40:40;;;;;;;6.63;1.60;;;18.10;62.80;;;;;;10561577;28;20028;-59
2021/05/07 17:45:40;;;;;;;7.50;1.90;;;18.00;62.70;;;;;;10562254;28;20111;-58
2021/05/07 17:50:41;;;;;;;5.05;1.60;;;18.00;62.30;;;;;;10561115;28;20036;-59
2021/05/07 17:55:42;;;;;;;10.40;1.50;;;18.00;62.50;;;;;;10545440;28;20039;-61
2021/05/07 18:00:43;;;;;;;7.90;1.55;;;18.00;62.40;;;;;;10541915;28;20060;-61
2021/05/07 18:05:44;;;;;;;4.60;1.42;;;17.90;62.30;;;;;;10561606;28;20027;-61
2021/05/07 18:10:45;;;;;;;6.53;1.10;;;17.90;62.20;;;;;;10548544;28;20042;-61
2021/05/07 18:15:46;;;;;;;4.43;1.50;;;17.90;62.30;;;;;;10558315;28;20103;-61
2021/05/07 18:20:47;;;;;;;5.97;1.33;;;17.90;62.20;;;;;;10523460;28;20039;-61
2021/05/07 18:25:48;;;;;;;6.28;1.17;;;17.80;62.50;;;;;;10557811;28;20028;-61
2021/05/07 18:30:48;;;;;;;7.07;2.05;;;17.80;62.30;;;;;;10573717;28;20030;-62
2021/05/07 18:35:50;;;;;;;7.22;1.58;;;17.80;62.10;;;;;;10538221;28;20052;-62
2021/05/07 18:40:50;;;;;;;4.70;1.50;;;17.90;62.20;;;;;;10562793;28;20043;-59
2021/05/07 18:45:51;;;;;;;6.38;1.60;;;17.90;62.00;;;;;;10552603;28;20502;-61
2021/05/07 18:50:52;;;;;;;2.63;1.20;;;17.90;61.70;;;;;;10576465;28;20467;-60
2021/05/07 18:56:04;;;;;;;4.63;1.20;;;17.90;61.70;;;;;;10572401;28;20047;-60
2021/05/07 19:01:04;;;;;;;3.58;1.35;;;18.00;61.90;;;;;;10553243;28;20028;-62
2021/05/07 19:06:06;;;;;;;5.32;1.00;;;18.00;61.70;;;;;;10546593;28;20024;-62
2021/05/07 19:11:06;;;;;;;3.92;1.27;;;18.00;61.90;;;;;;10554970;28;20031;-59
2021/05/07 19:16:07;;;;;;;7.38;1.33;;;18.00;61.70;;;;;;10565539;28;20484;-57
2021/05/07 19:21:08;;;;;;;5.13;1.20;;;18.00;62.10;;;;;;10566074;28;20024;-61
2021/05/07 19:26:09;;;;;;;5.63;1.15;;;18.00;62.40;;;;;;10569785;28;20101;-60
2021/05/07 19:31:12;;;;;;;5.03;1.17;;;18.00;63.20;;;;;;10567140;28;20218;-57
2021/05/07 19:36:15;;;;;;;4.00;1.10;;;18.00;62.50;;;;;;10546408;28;20044;-61
2021/05/07 19:41:16;;;;;;;4.85;1.27;;;18.00;62.30;;;;;;10557888;28;20038;-62
2021/05/07 19:46:17;;;;;;;3.10;1.08;;;18.00;62.30;;;;;;10585375;28;20605;-61
2021/05/07 19:51:18;;;;;;;10.60;1.55;;;18.00;62.20;;;;;;10533474;28;20024;-60
2021/05/07 19:56:19;;;;;;;3.53;1.13;;;17.90;62.20;;;;;;10565014;28;20038;-61
2021/05/07 20:01:19;;;;;;;3.75;1.00;;;17.90;62.20;;;;;;10568430;28;20025;-60
2021/05/07 20:06:22;;;;;;;3.65;1.05;;;17.90;62.30;;;;;;10549103;28;20401;-61
2021/05/07 20:11:22;;;;;;;2.72;1.27;;;17.90;62.30;;;;;;10567303;28;20028;-61
2021/05/07 20:16:23;;;;;;;3.65;1.20;;;17.90;62.30;;;;;;10548359;28;20032;-61
2021/05/07 20:21:24;;;;;;;2.60;1.20;;;17.80;62.30;;;;;;10567726;28;20032;-61
2021/05/07 20:26:25;;;;;;;2.10;0.80;;;17.80;62.80;;;;;;10564839;28;20050;-62
2021/05/07 20:31:26;;;;;;;2.00;0.77;;;17.80;62.30;;;;;;10556367;28;20480;-62
2021/05/07 20:36:26;;;;;;;2.45;1.15;;;17.80;62.20;;;;;;10524629;28;20388;-61
2021/05/07 20:41:27;;;;;;;2.33;1.05;;;17.80;62.20;;;;;;10542775;28;20028;-61
2021/05/07 20:46:28;;;;;;;2.00;1.30;;;17.70;62.10;;;;;;10541982;28;20032;-60
2021/05/07 20:51:30;;;;;;;1.65;0.75;;;17.70;62.10;;;;;;10524046;28;20023;-62
2021/05/07 20:56:30;;;;;;;2.53;0.98;;;17.70;62.10;;;;;;10541058;28;20064;-61
2021/05/07 21:01:31;;;;;;;2.28;0.80;;;17.70;62.10;;;;;;10550253;28;20418;-62
2021/05/07 21:06:32;;;;;;;2.45;1.00;;;17.70;62.10;;;;;;10542695;28;20031;-62
2021/05/07 21:11:33;;;;;;;1.88;1.05;;;17.60;62.10;;;;;;10569593;28;20076;-61
2021/05/07 21:16:34;;;;;;;1.15;0.93;;;17.60;62.00;;;;;;10564150;28;20032;-61
2021/05/07 21:21:35;;;;;;;1.92;0.75;;;17.60;62.20;;;;;;10541080;28;20115;-62
2021/05/07 21:26:37;;;;;;;1.27;0.70;;;17.60;62.00;;;;;;10540894;28;20028;-61
2021/05/07 21:31:38;;;;;;;1.75;0.85;;;17.60;62.00;;;;;;10518995;28;20036;-61
2021/05/07 21:36:39;;;;;;;1.75;0.60;;;17.60;62.00;;;;;;10539051;28;20043;-62
2021/05/07 21:41:39;;;;;;;1.73;1.50;;;17.60;61.90;;;;;;10549267;28;20043;-61
2021/05/07 21:46:42;;;;;;;0.88;0.60;;;17.60;61.90;;;;;;10526025;28;20024;-61
2021/05/07 21:51:42;;;;;;;1.58;0.80;;;17.60;61.70;;;;;;10539800;28;20040;-61
2021/05/07 21:56:43;;;;;;;2.03;1.23;;;17.60;61.50;;;;;;10553287;28;20524;-58
2021/05/07 22:01:44;;;;;;;2.97;0.68;;;17.70;61.60;;;;;;10566438;28;20035;-58
2021/05/07 22:06:45;;;;;;;2.10;0.85;;;17.70;61.60;;;;;;10551031;28;20024;-58
2021/05/07 22:11:47;;;;;;;2.30;0.70;;;17.70;61.50;;;;;;10520385;28;20051;-58
2021/05/07 22:16:47;;;;;;;0.98;0.65;;;17.70;61.40;;;;;;10565893;28;20036;-58
2021/05/07 22:21:49;;;;;;;3.85;0.88;;;17.70;61.30;;;;;;10539026;28;20036;-58
2021/05/07 22:26:50;;;;;;;2.08;1.17;;;17.70;61.30;;;;;;10553777;28;20523;-58
2021/05/07 22:31:51;;;;;;;1.17;0.63;;;17.80;61.30;;;;;;10572315;28;20055;-58
2021/05/07 22:36:51;;;;;;;4.10;1.00;;;17.70;61.20;;;;;;10540974;28;20059;-58
2021/05/07 22:41:52;;;;;;;1.17;0.70;;;17.70;61.20;;;;;;10538503;28;20120;-57
2021/05/07 22:46:54;;;;;;;1.05;0.68;;;17.70;61.10;;;;;;10541947;28;20019;-58
2021/05/07 22:51:54;;;;;;;2.13;0.80;;;17.70;61.10;;;;;;10552625;28;20047;-57
2021/05/07 22:56:55;;;;;;;1.50;0.70;;;17.70;61.00;;;;;;10542207;28;20103;-58
2021/05/07 23:01:56;;;;;;;1.48;0.80;;;17.70;61.00;;;;;;10551215;28;20031;-58
2021/05/07 23:06:56;;;;;;;1.25;0.70;;;17.60;61.00;;;;;;10538012;28;20103;-62
2021/05/07 23:11:57;;;;;;;1.15;0.63;;;17.60;61.00;;;;;;10541354;28;20030;-58
2021/05/07 23:16:58;;;;;;;1.98;0.68;;;17.60;60.90;;;;;;10558921;28;20614;-58
2021/05/07 23:21:58;;;;;;;2.15;0.70;;;17.60;60.80;;;;;;10541745;28;20067;-58
2021/05/07 23:26:59;;;;;;;0.93;0.70;;;17.60;60.80;;;;;;10559643;28;20464;-58
2021/05/07 23:32:00;;;;;;;2.17;0.82;;;17.70;60.70;;;;;;10572652;28;20066;-57
2021/05/07 23:37:01;;;;;;;1.33;0.68;;;17.70;60.70;;;;;;10563871;28;20096;-58
2021/05/07 23:42:02;;;;;;;1.13;0.60;;;17.70;60.60;;;;;;10560719;28;20115;-58
2021/05/07 23:47:03;;;;;;;1.48;0.68;;;17.70;60.40;;;;;;10566350;28;20030;-58
2021/05/07 23:52:04;;;;;;;1.52;0.80;;;17.70;60.40;;;;;;10544838;28;20085;-58
2021/05/07 23:57:05;;;;;;;1.58;0.55;;;17.70;60.30;;;;;;10544241;28;20384;-58
